Regina International Airport
CYQR : rendu visible

Aérodrome :











RETROUVEZ-NOUS SUR...

 
LOGIN :

S'inscrire | Disclaimer

   EN    FR    IT 

 









Légende :    VFR   VFR Marginal   IFR   IFR Intensif   IFR Très Intensif
Visi : 
Plafond : 
>= 8 km
>= 3000ft
5 à 8 km
1000 à 3000 ft
1500m à 5 km
500 à 1000 ft
800 à 1500m
200 à 500 ft
< 800m
< 200 ft
Symboles :   Orages  Brouillard  Fortes neiges  Fortes précipitations  Vent > 20 kt







- Altitude de l'aérodrome : 1894 ft
- Code IATA : YQR


CYQR - Regina International

DERNIER METAR :
  • 241900Z 32017G27KT 15SM FEW092 17/M06 A2983 RMK CU1 SLP116 DENSITY ALT 2700FT

METARs EXPIRÉS :
  • 241800Z 31020G27KT 260V320 15SM FEW085 17/M05 A2983 RMK CU1 CU TR SLP113 DENSITY ALT 2700FT
  • 241700Z 29011G16KT 15SM FEW065 15/M03 A2984 RMK CF1 CF TR SLP118 DENSITY ALT 2500FT

TAF TAF CYQR
Valide du 24 à 18h jusqu'au 25 à 18h UTC


241740Z 2418/2518 30015G25KT P6SM FEW060
BECMG 2419/2421 30018G28KT
FM250300 30015KT P6SM SCT050 BKN100
TEMPO 2503/2508 31018G28KT P6SM -SHRA BKN050 BKN080
FM250800 31018KT P6SM FEW060
BECMG 2513/2515 30022G35KT RMK NXT FCST BY 250000Z
FIR CZWG / Amérique du Nord



MET'MAP, la Météo Aéronautique d'un coup d'oeil ! - Copyright ORBIFLY Décembre 2007 - Disclaimer

ORBIFLY MET'MAP TEAM :

Programmation & Développement : Alexandra Zaïnal
Conception & Développement : Baudouin d'Aumeries
Co-Programmation & Développement : Marc-Olivier Méhu
Soutien technique & logistique : Manuel Goepfert

Contact : metmap@orbifly.com




SOURCES & CREDITS :

   NOAA       Earth
Advisory